createdAt,value
2019-03-23T00:01:02.709Z,131.77
2019-03-23T00:03:31.181Z,122.77
2019-03-23T00:05:59.641Z,124.27
2019-03-23T00:08:28.106Z,126.37
2019-03-23T00:10:56.618Z,124.97
2019-03-23T00:13:25.250Z,124.53
2019-03-23T00:15:53.736Z,130.53
2019-03-23T00:18:22.203Z,129.80
2019-03-23T00:20:50.703Z,132.23
2019-03-23T00:23:19.132Z,121.83
2019-03-23T00:25:47.642Z,125.37
2019-03-23T00:28:16.077Z,122.37
2019-03-23T00:30:44.590Z,128.80
2019-03-23T00:33:13.067Z,129.97
2019-03-23T00:35:41.534Z,145.23
2019-03-23T00:38:09.990Z,132.30
2019-03-23T00:40:38.524Z,133.70
2019-03-23T00:43:07.046Z,140.37
2019-03-23T00:45:35.511Z,149.30
2019-03-23T00:48:03.941Z,136.87
2019-03-23T00:50:32.438Z,141.47
2019-03-23T00:53:00.898Z,142.67
2019-03-23T00:55:29.388Z,140.73
2019-03-23T00:57:57.885Z,140.10
2019-03-23T01:00:26.341Z,141.03
2019-03-23T01:02:54.814Z,145.60
2019-03-23T01:05:23.267Z,133.30
2019-03-23T01:07:51.729Z,140.73
2019-03-23T01:10:20.247Z,149.83
2019-03-23T01:12:48.706Z,144.37
2019-03-23T01:15:17.158Z,158.40
2019-03-23T01:17:45.622Z,161.77
2019-03-23T01:20:14.441Z,137.87
2019-03-23T01:22:42.914Z,126.47
2019-03-23T01:25:11.747Z,141.23
2019-03-23T01:27:40.247Z,134.20
2019-03-23T01:30:13.475Z,142.00
2019-03-23T01:32:41.951Z,155.80
2019-03-23T01:35:10.647Z,149.30
2019-03-23T01:37:39.177Z,149.23
2019-03-23T01:40:08.577Z,153.63
2019-03-23T01:42:37.025Z,146.23
2019-03-23T01:45:12.830Z,143.43
2019-03-23T01:47:41.357Z,148.27
2019-03-23T01:50:11.216Z,143.07
2019-03-23T01:52:39.867Z,166.80
2019-03-23T01:55:09.931Z,158.53
2019-03-23T01:57:38.442Z,159.63
2019-03-23T02:00:09.421Z,154.87
2019-03-23T02:02:37.876Z,169.00
2019-03-23T02:05:07.775Z,174.10
2019-03-23T02:07:36.224Z,157.13
2019-03-23T02:10:06.989Z,165.47
2019-03-23T02:12:35.443Z,199.53
2019-03-23T02:15:06.341Z,186.17
2019-03-23T02:17:34.803Z,163.07
2019-03-23T02:20:11.408Z,173.60
2019-03-23T02:22:40.297Z,171.57
2019-03-23T02:25:09.700Z,167.80
2019-03-23T02:27:38.183Z,151.50
2019-03-23T02:30:11.366Z,146.83
2019-03-23T02:32:39.896Z,139.37
2019-03-23T02:35:09.174Z,137.63
2019-03-23T02:37:37.649Z,146.70
2019-03-23T02:40:08.028Z,158.77
2019-03-23T02:42:36.589Z,160.90
2019-03-23T02:45:10.282Z,164.20
2019-03-23T02:47:38.812Z,149.27
2019-03-23T02:50:09.281Z,146.47
2019-03-23T02:52:38.409Z,161.50
2019-03-23T02:55:09.270Z,161.97
2019-03-23T02:57:37.739Z,195.10
2019-03-23T03:00:11.904Z,225.00
2019-03-23T03:02:41.866Z,223.83
2019-03-23T03:05:10.718Z,205.73
2019-03-23T03:07:42.279Z,184.00
2019-03-23T03:10:11.408Z,183.37
2019-03-23T03:12:39.926Z,186.70
2019-03-23T03:15:09.720Z,229.40
2019-03-23T03:17:38.189Z,204.77
2019-03-23T03:20:08.154Z,233.07
2019-03-23T03:22:36.616Z,243.50
2019-03-23T03:25:06.823Z,249.70
2019-03-23T03:27:35.367Z,252.27
2019-03-23T03:30:05.402Z,217.53
2019-03-23T03:32:34.005Z,219.47
2019-03-23T03:35:02.483Z,218.27
2019-03-23T03:37:31.027Z,211.10
2019-03-23T03:39:59.532Z,207.97
2019-03-23T03:42:28.076Z,208.03
2019-03-23T03:44:56.584Z,211.27
2019-03-23T03:47:25.070Z,219.90
2019-03-23T03:49:53.544Z,239.77
2019-03-23T03:52:22.065Z,207.17
2019-03-23T03:54:50.580Z,208.50
2019-03-23T03:57:19.068Z,201.80
2019-03-23T03:59:47.577Z,222.87
2019-03-23T04:02:16.034Z,206.47
2019-03-23T04:04:44.574Z,184.00
2019-03-23T04:07:13.100Z,206.83
2019-03-23T04:09:41.644Z,195.43
2019-03-23T04:12:10.190Z,172.77
2019-03-23T04:14:38.647Z,160.07
2019-03-23T04:17:07.149Z,168.93
2019-03-23T04:19:35.700Z,179.13
2019-03-23T04:22:04.357Z,165.90
2019-03-23T04:24:32.867Z,161.30
2019-03-23T04:27:02.963Z,175.80
2019-03-23T04:29:31.438Z,162.07
2019-03-23T04:31:59.886Z,163.67
2019-03-23T04:34:28.634Z,157.83
2019-03-23T04:36:57.166Z,167.73
2019-03-23T04:39:25.631Z,177.60
2019-03-23T04:41:54.104Z,164.33
2019-03-23T04:44:22.561Z,166.00
2019-03-23T04:46:52.289Z,153.07
2019-03-23T04:49:20.787Z,134.17
2019-03-23T04:51:49.230Z,134.70
2019-03-23T04:54:17.695Z,140.97
2019-03-23T04:56:46.127Z,146.53
2019-03-23T04:59:14.619Z,136.63
2019-03-23T05:01:43.077Z,141.67
2019-03-23T05:04:11.614Z,145.27
2019-03-23T05:06:42.474Z,132.00
2019-03-23T05:09:10.358Z,126.73
2019-03-23T05:11:38.813Z,131.20
2019-03-23T05:14:07.313Z,127.93
2019-03-23T05:16:35.784Z,126.97
2019-03-23T05:19:04.341Z,129.50
2019-03-23T05:21:32.837Z,128.67
2019-03-23T05:24:01.356Z,123.27
2019-03-23T05:26:29.915Z,127.93
2019-03-23T05:28:58.379Z,129.63
2019-03-23T05:31:27.110Z,139.70
2019-03-23T05:33:55.592Z,116.00
2019-03-23T05:36:24.057Z,115.07
2019-03-23T05:38:53.098Z,116.07
2019-03-23T05:41:22.172Z,112.70
2019-03-23T05:43:50.650Z,107.53
2019-03-23T05:46:19.109Z,105.97
2019-03-23T05:48:47.555Z,105.50
2019-03-23T05:51:16.023Z,95.93
2019-03-23T05:53:44.473Z,102.53
2019-03-23T05:56:13.040Z,102.40
2019-03-23T05:58:41.542Z,108.10
2019-03-23T06:01:10.001Z,109.47
2019-03-23T06:03:38.460Z,112.50
2019-03-23T06:06:06.923Z,120.30
2019-03-23T06:08:35.452Z,125.17
2019-03-23T06:11:03.933Z,117.97
2019-03-23T06:13:32.399Z,105.60
2019-03-23T06:16:00.851Z,96.07
2019-03-23T06:18:29.295Z,108.67
2019-03-23T06:20:57.740Z,101.13
2019-03-23T06:23:26.257Z,106.17
2019-03-23T06:25:54.746Z,102.87
2019-03-23T06:28:23.191Z,112.63
2019-03-23T06:30:51.676Z,105.57
2019-03-23T06:33:20.124Z,117.87
2019-03-23T06:35:48.587Z,130.10
2019-03-23T06:38:17.037Z,122.03
2019-03-23T06:40:45.602Z,118.47
2019-03-23T06:43:14.092Z,119.93
2019-03-23T06:45:42.594Z,114.70
2019-03-23T06:48:11.201Z,115.47
2019-03-23T06:50:39.654Z,111.17
2019-03-23T06:53:08.099Z,118.50
2019-03-23T06:55:36.553Z,110.97
2019-03-23T06:58:05.479Z,120.37
2019-03-23T07:00:34.013Z,115.00
2019-03-23T07:03:02.467Z,115.90
2019-03-23T07:05:34.259Z,105.30
2019-03-23T07:08:02.762Z,115.03
2019-03-23T07:10:31.345Z,110.67
2019-03-23T07:12:59.807Z,109.93
2019-03-23T07:15:32.935Z,116.70
2019-03-23T07:18:01.445Z,111.33
2019-03-23T07:20:29.913Z,111.23
2019-03-23T07:22:58.489Z,110.23
2019-03-23T07:25:27.076Z,105.83
2019-03-23T07:27:55.570Z,116.83
2019-03-23T07:30:24.026Z,105.13
2019-03-23T07:32:52.561Z,107.93
2019-03-23T07:35:21.381Z,107.30
2019-03-23T07:37:49.902Z,115.17
2019-03-23T07:40:18.460Z,114.97
2019-03-23T07:42:47.058Z,100.23
2019-03-23T07:45:18.433Z,107.43
2019-03-23T07:47:46.959Z,98.27
2019-03-23T07:50:15.593Z,110.03
2019-03-23T07:52:44.086Z,114.43
2019-03-23T07:55:18.303Z,109.87
2019-03-23T07:57:46.806Z,111.23
2019-03-23T08:00:19.854Z,106.90
2019-03-23T08:02:48.386Z,101.03
2019-03-23T08:05:17.605Z,106.93
2019-03-23T08:07:48.949Z,106.53
2019-03-23T08:10:26.182Z,103.47
2019-03-23T08:12:54.712Z,95.13
2019-03-23T08:15:23.153Z,112.30
2019-03-23T08:17:51.723Z,95.93
2019-03-23T08:20:20.247Z,102.70
2019-03-23T08:22:48.691Z,108.80
2019-03-23T08:25:17.181Z,106.30
2019-03-23T08:27:45.623Z,98.93
2019-03-23T08:30:14.090Z,104.37
2019-03-23T08:32:42.549Z,97.40
2019-03-23T08:35:11.078Z,103.97
2019-03-23T08:37:39.536Z,104.73
2019-03-23T08:40:08.741Z,98.57
2019-03-23T08:42:37.170Z,107.17
2019-03-23T08:45:06.649Z,104.53
2019-03-23T08:47:35.168Z,105.10
2019-03-23T08:50:06.170Z,102.40
2019-03-23T08:52:34.698Z,101.97
2019-03-23T08:55:03.261Z,96.20
2019-03-23T08:57:31.821Z,103.47
2019-03-23T09:00:00.364Z,99.23
2019-03-23T09:02:28.807Z,107.57
2019-03-23T09:04:57.451Z,114.00
2019-03-23T09:07:25.956Z,111.47
2019-03-23T09:09:59.025Z,108.80
2019-03-23T09:12:24.616Z,108.07
2019-03-23T09:14:53.081Z,112.30
2019-03-23T09:17:21.561Z,113.10
2019-03-23T09:19:50.026Z,112.57
2019-03-23T09:22:18.567Z,109.90
2019-03-23T09:24:47.070Z,120.27
2019-03-23T09:27:15.521Z,124.43
2019-03-23T09:29:44.010Z,112.90
2019-03-23T09:32:12.519Z,116.17
2019-03-23T09:34:40.991Z,115.33
2019-03-23T09:37:09.446Z,105.53
2019-03-23T09:39:37.895Z,116.07
2019-03-23T09:42:07.172Z,115.93
2019-03-23T09:44:35.733Z,114.53
2019-03-23T09:47:04.206Z,113.23
2019-03-23T09:49:32.701Z,102.43
2019-03-23T09:52:01.198Z,106.67
2019-03-23T09:54:48.999Z,117.03
2019-03-23T09:57:17.593Z,105.30
2019-03-23T09:59:46.046Z,104.97
2019-03-23T10:02:14.526Z,110.20
2019-03-23T10:04:42.989Z,100.37
2019-03-23T10:07:11.518Z,95.23
2019-03-23T10:09:39.965Z,89.90
2019-03-23T10:12:08.445Z,109.37
2019-03-23T10:14:36.991Z,101.13
2019-03-23T10:17:05.486Z,104.27
2019-03-23T10:19:33.983Z,105.17
2019-03-23T10:22:02.487Z,104.83
2019-03-23T10:24:31.015Z,102.73
2019-03-23T10:26:59.648Z,99.03
2019-03-23T10:29:28.101Z,105.53
2019-03-23T10:31:56.557Z,97.97
2019-03-23T10:34:26.823Z,95.83
2019-03-23T10:36:55.300Z,101.97
2019-03-23T10:39:23.739Z,102.20
2019-03-23T10:41:52.199Z,99.20
2019-03-23T10:44:20.658Z,102.13
2019-03-23T10:46:49.101Z,97.47
2019-03-23T10:49:17.565Z,96.30
2019-03-23T10:51:46.117Z,87.30
2019-03-23T10:54:14.577Z,91.90
2019-03-23T10:56:45.084Z,97.67
2019-03-23T10:59:13.516Z,94.03
2019-03-23T11:01:41.974Z,92.13
2019-03-23T11:04:10.422Z,85.07
2019-03-23T11:06:38.907Z,90.10
2019-03-23T11:09:07.554Z,94.83
2019-03-23T11:11:36.020Z,93.17
2019-03-23T11:14:04.582Z,86.20
2019-03-23T11:16:33.133Z,79.97
2019-03-23T11:19:01.669Z,85.73
2019-03-23T11:21:30.126Z,87.47
2019-03-23T11:23:58.681Z,80.63
2019-03-23T11:26:28.120Z,88.00
2019-03-23T11:28:56.881Z,88.40
2019-03-23T11:31:25.447Z,85.97
2019-03-23T11:33:54.982Z,83.13
2019-03-23T11:36:23.522Z,81.20
2019-03-23T11:38:52.186Z,85.80
2019-03-23T11:41:20.755Z,83.03
2019-03-23T11:43:49.324Z,81.30
2019-03-23T11:46:17.826Z,84.40
2019-03-23T11:48:46.475Z,85.80
2019-03-23T11:51:15.129Z,82.07
2019-03-23T11:53:43.703Z,88.17
2019-03-23T11:56:12.241Z,83.67
2019-03-23T11:58:40.943Z,87.87
2019-03-23T12:01:09.459Z,83.47
2019-03-23T12:03:37.972Z,87.70
2019-03-23T12:06:06.489Z,84.90
2019-03-23T12:08:34.947Z,84.37
2019-03-23T12:11:04.881Z,82.43
2019-03-23T12:13:33.344Z,90.20
2019-03-23T12:16:01.826Z,77.00
2019-03-23T12:18:30.420Z,82.60
2019-03-23T12:20:58.951Z,82.00
2019-03-23T12:23:27.469Z,81.43
2019-03-23T12:25:56.052Z,82.10
2019-03-23T12:28:24.577Z,77.60
2019-03-23T12:30:53.069Z,78.30
2019-03-23T12:33:21.659Z,75.07
2019-03-23T12:35:50.334Z,72.77
2019-03-23T12:38:18.815Z,82.63
2019-03-23T12:40:47.302Z,81.90
2019-03-23T12:43:15.736Z,73.67
2019-03-23T12:45:44.196Z,74.10
2019-03-23T12:48:12.656Z,72.23
2019-03-23T12:50:41.111Z,73.07
2019-03-23T12:53:09.584Z,72.27
2019-03-23T12:55:38.052Z,72.53
2019-03-23T12:58:06.575Z,71.90
2019-03-23T13:00:35.092Z,67.03
2019-03-23T13:03:03.547Z,67.00
2019-03-23T13:05:32.014Z,65.83
2019-03-23T13:08:00.727Z,70.52
2019-03-23T13:10:29.165Z,71.67
2019-03-23T13:12:58.505Z,62.10
2019-03-23T13:15:27.057Z,63.07
2019-03-23T13:17:56.403Z,65.93
2019-03-23T13:20:26.195Z,66.97
2019-03-23T13:22:54.886Z,63.17
2019-03-23T13:25:23.398Z,63.33
2019-03-23T13:27:51.931Z,60.73
2019-03-23T13:30:20.606Z,56.90
2019-03-23T13:32:49.151Z,63.07
2019-03-23T13:35:17.674Z,58.00
2019-03-23T13:37:46.119Z,57.37
2019-03-23T13:40:14.732Z,52.63
2019-03-23T13:42:43.301Z,52.03
2019-03-23T13:45:12.219Z,49.93
2019-03-23T13:47:40.788Z,48.57
2019-03-23T13:50:10.945Z,47.33
2019-03-23T13:52:39.528Z,51.07
2019-03-23T13:55:09.949Z,54.53
2019-03-23T13:57:38.516Z,41.93
2019-03-23T14:00:08.913Z,45.57
2019-03-23T14:02:37.394Z,37.73
2019-03-23T14:05:12.211Z,37.33
2019-03-23T14:07:36.183Z,34.43
2019-03-23T14:10:06.312Z,29.63
2019-03-23T14:12:34.763Z,26.10
2019-03-23T14:15:03.294Z,26.20
2019-03-23T14:17:31.754Z,21.57
2019-03-23T14:20:00.322Z,21.87
2019-03-23T14:22:28.851Z,23.57
2019-03-23T14:24:57.402Z,21.30
2019-03-23T14:27:25.961Z,26.47
2019-03-23T14:29:54.531Z,24.60
2019-03-23T14:32:22.996Z,17.10
2019-03-23T14:34:51.523Z,19.97
2019-03-23T14:37:19.989Z,19.73
2019-03-23T14:39:48.439Z,20.10
2019-03-23T14:42:16.873Z,15.83
2019-03-23T14:44:45.406Z,16.93
2019-03-23T14:47:13.903Z,15.83
2019-03-23T14:49:42.398Z,15.60
2019-03-23T14:52:10.866Z,15.27
2019-03-23T14:54:39.331Z,10.67
2019-03-23T14:57:07.891Z,12.07
2019-03-23T14:59:36.363Z,10.40
2019-03-23T15:02:04.814Z,13.90
2019-03-23T15:04:33.325Z,13.93
2019-03-23T15:07:01.830Z,15.37
2019-03-23T15:09:30.311Z,13.23
2019-03-23T15:11:58.743Z,16.63
2019-03-23T15:14:27.238Z,10.87
2019-03-23T15:16:55.762Z,8.43
2019-03-23T15:19:24.371Z,7.33
2019-03-23T15:21:52.878Z,6.50
2019-03-23T15:24:21.351Z,12.83
2019-03-23T15:26:49.812Z,10.13
2019-03-23T15:29:18.355Z,9.23
2019-03-23T15:31:46.798Z,12.80
2019-03-23T15:34:15.410Z,9.13
2019-03-23T15:36:44.048Z,13.13
2019-03-23T15:39:12.501Z,11.33
2019-03-23T15:41:40.971Z,15.50
2019-03-23T15:44:10.478Z,13.33
2019-03-23T15:46:39.933Z,9.67
2019-03-23T15:49:08.398Z,18.33
2019-03-23T15:51:38.975Z,14.57
2019-03-23T15:54:08.748Z,9.97
2019-03-23T15:56:37.273Z,13.57
2019-03-23T15:59:09.001Z,13.73
2019-03-23T16:01:37.518Z,26.30
2019-03-23T16:04:07.575Z,19.97
2019-03-23T16:06:36.148Z,7.07
2019-03-23T16:09:07.569Z,7.80
2019-03-23T16:11:40.646Z,6.03
2019-03-23T16:14:10.906Z,10.27
2019-03-23T16:16:39.434Z,10.87
2019-03-23T16:19:09.877Z,6.73
2019-03-23T16:21:41.237Z,6.30
2019-03-23T16:24:09.851Z,6.43
2019-03-23T16:26:38.436Z,8.77
2019-03-23T16:29:06.970Z,15.63
2019-03-23T16:31:38.435Z,10.57
2019-03-23T16:34:07.263Z,7.93
2019-03-23T16:36:35.940Z,9.17
2019-03-23T16:39:06.351Z,9.80
2019-03-23T16:41:35.082Z,9.03
2019-03-23T16:44:03.661Z,12.50
2019-03-23T16:46:32.216Z,12.10
2019-03-23T16:49:03.082Z,11.87
2019-03-23T16:51:31.682Z,10.53
2019-03-23T16:54:00.206Z,10.83
2019-03-23T16:56:30.332Z,10.73
2019-03-23T16:58:58.961Z,8.17
2019-03-23T17:01:28.300Z,10.73
2019-03-23T17:03:56.795Z,11.80
2019-03-23T17:06:25.397Z,12.03
2019-03-23T17:08:55.949Z,14.20
2019-03-23T17:11:26.310Z,13.10
2019-03-23T17:13:54.785Z,11.77
2019-03-23T17:16:23.397Z,13.00
2019-03-23T17:18:51.893Z,9.37
2019-03-23T17:21:20.372Z,11.30
2019-03-23T17:23:48.968Z,12.60
2019-03-23T17:26:17.447Z,14.10
2019-03-23T17:28:45.966Z,15.57
2019-03-23T17:31:16.101Z,11.47
2019-03-23T17:33:44.550Z,14.20
2019-03-23T17:36:15.773Z,11.93
2019-03-23T17:38:44.227Z,21.57
2019-03-23T17:41:12.689Z,14.17
2019-03-23T17:43:41.202Z,19.57
2019-03-23T17:46:09.743Z,10.17
2019-03-23T17:48:38.349Z,12.70
2019-03-23T17:51:07.197Z,20.33
2019-03-23T17:53:37.302Z,13.37
2019-03-23T17:56:06.461Z,14.77
2019-03-23T17:58:35.390Z,16.37
2019-03-23T18:01:04.808Z,10.63
2019-03-23T18:06:29.697Z,11.47
2019-03-23T18:08:59.678Z,17.20
2019-03-23T18:11:28.291Z,19.70
2019-03-23T18:13:56.950Z,16.17
2019-03-23T18:16:25.736Z,20.53
2019-03-23T18:18:54.453Z,16.10
2019-03-23T18:21:23.117Z,17.10
2019-03-23T18:23:51.905Z,17.87
2019-03-23T18:26:20.470Z,17.37
2019-03-23T18:28:49.274Z,15.17
2019-03-23T18:31:17.924Z,33.33
2019-03-23T18:33:46.550Z,20.23
2019-03-23T18:36:23.519Z,18.97
2019-03-23T18:38:51.110Z,18.33
2019-03-23T18:41:19.722Z,14.37
2019-03-23T18:43:48.406Z,17.67
2019-03-23T18:46:16.898Z,13.40
2019-03-23T18:48:48.315Z,22.73
2019-03-23T18:51:18.448Z,16.30
2019-03-23T18:53:46.895Z,18.27
2019-03-23T18:56:15.584Z,19.80
2019-03-23T18:58:44.303Z,17.93
2019-03-23T19:01:12.968Z,19.00
2019-03-23T19:03:41.435Z,15.07
2019-03-23T19:06:09.915Z,21.57
2019-03-23T19:08:38.600Z,20.03
2019-03-23T19:11:07.118Z,21.67
2019-03-23T19:13:38.150Z,16.17
2019-03-23T19:16:05.896Z,24.43
2019-03-23T19:18:34.374Z,24.47
2019-03-23T19:21:02.817Z,17.20
2019-03-23T19:23:31.260Z,20.20
2019-03-23T19:25:59.729Z,25.70
2019-03-23T19:28:28.182Z,24.00
2019-03-23T19:30:56.631Z,30.07
2019-03-23T19:33:25.074Z,28.67
2019-03-23T19:35:53.626Z,23.07
2019-03-23T19:38:22.061Z,23.03
2019-03-23T19:40:50.601Z,25.03
2019-03-23T19:43:19.086Z,22.87
2019-03-23T19:45:47.585Z,20.83
2019-03-23T19:48:16.114Z,27.73
2019-03-23T19:50:44.587Z,23.77
2019-03-23T19:53:13.129Z,21.43
2019-03-23T19:55:41.634Z,21.60
2019-03-23T19:58:10.080Z,26.60
2019-03-23T20:00:38.561Z,32.27
2019-03-23T20:03:07.025Z,25.53
2019-03-23T20:05:35.552Z,27.40
2019-03-23T20:08:04.077Z,31.43
2019-03-23T20:10:32.521Z,24.43
2019-03-23T20:13:01.000Z,24.97
2019-03-23T20:15:29.470Z,29.60
2019-03-23T20:17:57.920Z,19.43
2019-03-23T20:20:26.367Z,19.03
2019-03-23T20:22:54.818Z,20.43
2019-03-23T20:25:23.293Z,31.27
2019-03-23T20:27:51.789Z,25.23
2019-03-23T20:30:20.749Z,26.03
2019-03-23T20:32:49.219Z,34.53
2019-03-23T20:35:17.685Z,22.83
2019-03-23T20:37:46.117Z,24.17
2019-03-23T20:40:15.457Z,26.33
2019-03-23T20:42:44.055Z,29.10
2019-03-23T20:45:15.622Z,24.67
2019-03-23T20:47:44.082Z,29.47
2019-03-23T20:50:12.866Z,23.57
2019-03-23T20:52:41.492Z,26.97
2019-03-23T20:55:24.085Z,28.00
2019-03-23T20:57:53.156Z,26.13
2019-03-23T21:00:21.698Z,28.30
2019-03-23T21:02:50.557Z,25.70
2019-03-23T21:05:19.003Z,27.73
2019-03-23T21:07:47.455Z,34.83
2019-03-23T21:10:15.900Z,37.23
2019-03-23T21:12:44.711Z,30.37
2019-03-23T21:15:13.155Z,39.90
2019-03-23T21:17:51.137Z,27.27
2019-03-23T21:20:12.113Z,24.43
2019-03-23T21:22:40.593Z,28.07
2019-03-23T21:25:09.283Z,31.80
2019-03-23T21:27:37.835Z,25.03
2019-03-23T21:30:09.450Z,16.70
2019-03-23T21:32:37.982Z,27.77
2019-03-23T21:35:07.022Z,30.57
2019-03-23T21:37:35.568Z,25.53
2019-03-23T21:40:05.848Z,30.30
2019-03-23T21:42:34.387Z,31.17
2019-03-23T21:45:03.011Z,20.00
2019-03-23T21:47:31.493Z,24.30
2019-03-23T21:50:00.002Z,24.30
2019-03-23T21:52:28.517Z,28.43
2019-03-23T21:54:56.971Z,27.00
2019-03-23T21:57:25.437Z,29.53
2019-03-23T21:59:53.890Z,24.43
2019-03-23T22:02:22.335Z,27.40
2019-03-23T22:04:50.868Z,18.87
2019-03-23T22:07:19.377Z,26.67
2019-03-23T22:09:47.821Z,22.87
2019-03-23T22:12:16.307Z,23.27
2019-03-23T22:14:44.842Z,28.07
2019-03-23T22:17:13.294Z,22.77
2019-03-23T22:19:41.767Z,29.03
2019-03-23T22:22:10.223Z,37.97
2019-03-23T22:24:38.771Z,27.97
2019-03-23T22:27:07.288Z,31.73
2019-03-23T22:29:35.901Z,29.73
2019-03-23T22:32:04.348Z,43.10
2019-03-23T22:34:32.810Z,29.53
2019-03-23T22:37:01.277Z,27.77
2019-03-23T22:39:29.801Z,34.17
2019-03-23T22:41:58.221Z,20.17
2019-03-23T22:44:26.739Z,31.00
2019-03-23T22:46:55.186Z,27.30
2019-03-23T22:49:23.667Z,22.40
2019-03-23T22:51:52.207Z,28.47
2019-03-23T22:54:20.701Z,31.27
2019-03-23T22:56:49.157Z,30.10
2019-03-23T22:59:17.622Z,29.33
2019-03-23T23:01:46.057Z,20.70
2019-03-23T23:04:14.510Z,36.00
2019-03-23T23:06:42.963Z,29.33
2019-03-23T23:09:11.491Z,34.40
2019-03-23T23:11:40.022Z,26.67
2019-03-23T23:14:08.494Z,28.67
2019-03-23T23:16:37.506Z,26.07
2019-03-23T23:19:05.995Z,33.90
2019-03-23T23:21:34.454Z,30.03
2019-03-23T23:24:02.974Z,31.97
2019-03-23T23:26:31.473Z,27.13
2019-03-23T23:28:59.898Z,30.43
2019-03-23T23:31:28.379Z,43.73
2019-03-23T23:33:56.812Z,26.03
2019-03-23T23:36:25.293Z,31.83
2019-03-23T23:38:53.792Z,26.17
2019-03-23T23:41:22.309Z,32.93
2019-03-23T23:43:50.762Z,29.73
2019-03-23T23:46:19.282Z,27.80
2019-03-23T23:48:51.497Z,25.90
2019-03-23T23:51:17.915Z,21.17
2019-03-23T23:53:46.382Z,22.73
2019-03-23T23:56:14.836Z,32.13
2019-03-23T23:58:43.279Z,33.03
